Time;durP1;ratioP1;P1;durP2;ratioP2;P2;SDS_P1;SDS_P2;PMS_P1;PMS_P2;Temp;Humidity;BMP_temperature;BMP_pressure;BME280_temperature;BME280_humidity;BME280_pressure;Samples;Min_cycle;Max_cycle;Signal;HPM_P1;HPM_P2
2022/10/19 00:00:00;;;;;;;10.82;3.35;;;15.70;98.10;;;;;;5032581;28;20040;-61
2022/10/19 00:02:26;;;;;;;10.85;3.25;;;15.60;98.10;;;;;;5032834;28;20076;-61
2022/10/19 00:04:51;;;;;;;8.90;3.20;;;15.70;98.10;;;;;;5032902;28;20503;-61
2022/10/19 00:07:17;;;;;;;11.02;3.25;;;15.70;98.30;;;;;;5032924;28;20029;-61
2022/10/19 00:09:43;;;;;;;10.88;2.80;;;15.50;98.40;;;;;;5032886;28;20092;-60
2022/10/19 00:12:08;;;;;;;12.40;3.50;;;15.60;98.30;;;;;;5033229;28;20485;-61
2022/10/19 00:14:34;;;;;;;13.30;3.28;;;15.60;98.30;;;;;;5032336;28;20030;-61
2022/10/19 00:16:59;;;;;;;10.40;3.10;;;15.60;98.30;;;;;;5032640;28;20029;-63
2022/10/19 00:19:26;;;;;;;7.60;2.78;;;15.60;98.30;;;;;;5032735;28;20021;-61
2022/10/19 00:21:52;;;;;;;12.40;3.63;;;15.60;98.40;;;;;;5036032;28;20520;-63
2022/10/19 00:24:18;;;;;;;16.33;3.58;;;15.60;98.50;;;;;;5036640;28;20034;-61
2022/10/19 00:26:44;;;;;;;12.00;3.42;;;15.60;98.50;;;;;;5036635;28;20475;-63
2022/10/19 00:29:12;;;;;;;10.30;3.88;;;15.60;98.50;;;;;;5036299;28;20034;-62
2022/10/19 00:31:38;;;;;;;8.32;3.50;;;15.50;98.60;;;;;;5036507;28;20505;-62
2022/10/19 00:34:03;;;;;;;9.15;3.55;;;15.50;98.60;;;;;;5036442;28;20033;-62
2022/10/19 00:36:32;;;;;;;11.73;3.78;;;15.50;98.60;;;;;;5036775;28;20033;-63
2022/10/19 00:38:58;;;;;;;15.52;4.35;;;15.50;99.00;;;;;;5036308;28;20074;-61
2022/10/19 00:41:28;;;;;;;11.75;4.22;;;15.40;98.80;;;;;;5036471;28;20484;-61
2022/10/19 00:43:59;;;;;;;9.88;3.28;;;15.50;98.80;;;;;;5035711;28;20033;-61
2022/10/19 00:46:28;;;;;;;12.25;3.55;;;15.50;98.70;;;;;;5036427;28;20108;-61
2022/10/19 00:48:58;;;;;;;9.10;3.50;;;15.40;98.70;;;;;;5036143;28;20112;-62
2022/10/19 00:51:27;;;;;;;11.57;3.83;;;15.50;98.80;;;;;;5036341;28;20022;-60
2022/10/19 00:53:54;;;;;;;8.70;3.45;;;15.40;98.90;;;;;;5036281;28;20018;-61
2022/10/19 00:56:19;;;;;;;13.85;3.65;;;15.40;98.90;;;;;;5035967;28;20471;-61
2022/10/19 00:58:45;;;;;;;11.85;3.72;;;15.40;99.00;;;;;;5035795;28;20021;-61
2022/10/19 01:01:16;;;;;;;12.20;3.47;;;15.40;98.90;;;;;;5036025;28;20025;-60
2022/10/19 01:03:41;;;;;;;10.38;3.38;;;15.40;99.00;;;;;;5036063;28;20037;-60
2022/10/19 01:06:07;;;;;;;14.18;3.90;;;15.40;99.00;;;;;;5035791;28;20353;-62
2022/10/19 01:08:33;;;;;;;14.32;3.85;;;15.40;99.00;;;;;;5035985;28;20522;-60
2022/10/19 01:11:14;;;;;;;13.32;3.63;;;15.30;99.10;;;;;;5036219;28;20026;-60
2022/10/19 01:14:02;;;;;;;11.05;4.30;;;15.30;99.10;;;;;;5035798;28;20371;-60
2022/10/19 01:16:41;;;;;;;11.77;3.67;;;15.30;99.10;;;;;;5035615;28;20057;-61
2022/10/19 01:19:22;;;;;;;12.15;3.80;;;15.30;99.10;;;;;;5035740;28;20125;-60
2022/10/19 01:22:14;;;;;;;14.10;3.67;;;15.30;99.10;;;;;;5035463;28;20027;-60
2022/10/19 01:25:16;;;;;;;9.90;3.45;;;15.30;99.20;;;;;;5035191;28;20079;-62
2022/10/19 01:28:00;;;;;;;13.10;3.78;;;15.20;99.10;;;;;;5034828;28;20048;-59
2022/10/19 01:31:03;;;;;;;8.68;3.17;;;15.20;99.30;;;;;;5035509;28;20017;-60
2022/10/19 01:33:37;;;;;;;12.30;4.32;;;15.30;99.20;;;;;;5035559;28;20040;-60
2022/10/19 01:36:06;;;;;;;13.35;3.72;;;15.20;99.20;;;;;;5034815;28;20028;-61
2022/10/19 01:38:48;;;;;;;11.10;4.03;;;15.20;99.20;;;;;;5035486;28;20029;-61
2022/10/19 01:41:29;;;;;;;14.50;3.58;;;15.20;99.20;;;;;;5035078;28;20352;-60
2022/10/19 01:44:00;;;;;;;11.32;3.50;;;15.20;99.20;;;;;;5035183;28;20056;-60
2022/10/19 01:46:28;;;;;;;12.27;3.05;;;15.10;99.20;;;;;;5034960;28;20013;-61
2022/10/19 01:49:00;;;;;;;12.23;3.25;;;15.10;99.20;;;;;;5035251;28;20043;-62
2022/10/19 01:51:27;;;;;;;;;;;15.10;99.20;;;;;;5035604;28;20040;-60
2022/10/19 01:53:57;;;;;;;17.17;4.03;;;15.10;99.20;;;;;;5035112;28;19905;-61
2022/10/19 01:56:26;;;;;;;11.30;3.75;;;15.10;99.20;;;;;;5034591;28;20032;-61
2022/10/19 01:58:55;;;;;;;13.00;3.78;;;15.10;99.20;;;;;;5050272;28;20018;-60
2022/10/19 02:01:22;;;;;;;8.63;2.95;;;15.10;99.20;;;;;;5034869;28;20079;-60
2022/10/19 02:03:50;;;;;;;12.98;3.40;;;15.10;99.20;;;;;;5034802;28;20486;-61
2022/10/19 02:06:16;;;;;;;11.55;4.07;;;15.00;99.20;;;;;;5033571;28;20032;-61
2022/10/19 02:08:49;;;;;;;13.60;3.55;;;15.10;99.20;;;;;;5035027;28;20053;-61
2022/10/19 02:11:15;;;;;;;8.30;3.60;;;15.00;99.20;;;;;;5034504;28;20395;-60
2022/10/19 02:13:43;;;;;;;10.73;3.50;;;15.00;99.30;;;;;;5034802;28;20036;-60
2022/10/19 02:16:15;;;;;;;11.27;3.60;;;15.00;99.20;;;;;;5034358;28;20367;-60
2022/10/19 02:18:45;;;;;;;13.02;3.90;;;14.90;99.30;;;;;;5034600;28;20018;-60
2022/10/19 02:21:11;;;;;;;12.43;4.28;;;15.00;99.20;;;;;;5034519;28;20029;-61
2022/10/19 02:23:37;;;;;;;12.20;4.18;;;15.00;99.10;;;;;;5034123;28;20418;-61
2022/10/19 02:26:03;;;;;;;11.35;4.10;;;15.00;99.20;;;;;;5034292;28;20018;-61
2022/10/19 02:28:29;;;;;;;14.65;4.38;;;15.00;99.20;;;;;;5034388;28;20033;-61
2022/10/19 02:30:56;;;;;;;11.30;4.38;;;14.90;99.20;;;;;;5034356;28;20514;-62
2022/10/19 02:33:22;;;;;;;13.23;4.75;;;14.90;99.50;;;;;;5034207;28;20037;-62
2022/10/19 02:35:48;;;;;;;15.60;3.92;;;14.90;99.20;;;;;;5034210;28;20024;-62
2022/10/19 02:38:17;;;;;;;15.30;4.15;;;14.90;99.30;;;;;;5033953;28;20030;-60
2022/10/19 02:40:53;;;;;;;9.98;3.50;;;14.90;99.30;;;;;;5034121;28;20437;-61
2022/10/19 02:43:22;;;;;;;17.50;4.32;;;14.90;99.40;;;;;;5033436;28;20037;-62
2022/10/19 02:45:58;;;;;;;16.52;4.50;;;14.80;99.30;;;;;;5034011;28;20021;-60
2022/10/19 02:48:25;;;;;;;13.02;3.83;;;14.90;99.30;;;;;;5033850;28;20558;-62
2022/10/19 02:50:51;;;;;;;14.40;4.22;;;14.90;99.40;;;;;;5034127;28;20024;-62
2022/10/19 02:53:17;;;;;;;14.15;3.35;;;14.80;99.40;;;;;;5033672;28;20382;-62
2022/10/19 02:55:44;;;;;;;12.90;3.70;;;14.80;99.40;;;;;;5033952;28;20028;-61
2022/10/19 02:58:10;;;;;;;12.35;3.85;;;14.80;99.40;;;;;;5033657;28;20060;-61
2022/10/19 03:00:35;;;;;;;10.20;3.90;;;14.70;99.50;;;;;;5034012;28;20057;-61
2022/10/19 03:03:02;;;;;;;10.80;3.60;;;14.80;99.70;;;;;;5033536;28;20071;-61
2022/10/19 03:05:28;;;;;;;11.30;3.92;;;14.70;99.40;;;;;;5033668;28;20025;-60
2022/10/19 03:07:53;;;;;;;13.30;3.83;;;14.70;99.40;;;;;;5033297;28;20029;-62
2022/10/19 03:10:19;;;;;;;10.77;3.53;;;14.80;99.40;;;;;;5033603;28;20113;-59
2022/10/19 03:12:44;;;;;;;8.43;4.00;;;14.70;99.30;;;;;;5034031;28;20025;-60
2022/10/19 03:15:15;;;;;;;10.55;4.00;;;14.80;99.20;;;;;;5033621;28;20021;-60
2022/10/19 03:17:40;;;;;;;10.65;4.15;;;14.80;99.20;;;;;;5029284;28;20424;-60
2022/10/19 03:20:07;;;;;;;12.38;4.18;;;14.70;99.30;;;;;;5013432;28;20111;-60
2022/10/19 03:22:32;;;;;;;9.15;3.83;;;14.70;99.30;;;;;;5011582;28;20411;-60
2022/10/19 03:24:58;;;;;;;13.48;4.20;;;14.70;99.20;;;;;;5013562;28;20375;-60
2022/10/19 03:27:23;;;;;;;13.23;3.90;;;14.70;99.20;;;;;;5012824;28;20072;-60
2022/10/19 03:29:49;;;;;;;14.60;4.60;;;14.60;99.30;;;;;;5013726;28;20431;-60
2022/10/19 03:32:15;;;;;;;18.20;4.97;;;14.60;99.30;;;;;;5013683;28;20028;-59
2022/10/19 03:34:40;;;;;;;12.05;4.70;;;14.60;99.20;;;;;;5013413;28;20475;-60
2022/10/19 03:37:07;;;;;;;14.07;4.07;;;14.60;99.10;;;;;;5013256;28;20073;-60
2022/10/19 03:39:33;;;;;;;13.02;3.95;;;14.60;99.10;;;;;;5013595;28;20064;-60
2022/10/19 03:41:59;;;;;;;11.20;3.42;;;14.60;99.10;;;;;;5013350;28;20038;-59
2022/10/19 03:44:24;;;;;;;12.60;3.78;;;14.60;99.20;;;;;;5013253;28;20018;-60
2022/10/19 03:46:50;;;;;;;14.88;3.80;;;14.60;99.00;;;;;;5013741;28;20033;-60
2022/10/19 03:49:16;;;;;;;12.32;4.55;;;14.60;99.10;;;;;;5013221;28;20026;-60
2022/10/19 03:51:41;;;;;;;11.82;4.03;;;14.60;99.00;;;;;;5013189;28;20041;-60
2022/10/19 03:54:12;;;;;;;13.20;3.75;;;14.60;99.00;;;;;;5012932;28;20029;-60
2022/10/19 03:56:37;;;;;;;8.65;3.67;;;14.60;99.00;;;;;;5012774;28;20069;-60
2022/10/19 03:59:04;;;;;;;9.68;3.45;;;14.50;99.00;;;;;;5013134;28;20049;-60
2022/10/19 04:01:33;;;;;;;13.32;3.35;;;14.60;99.00;;;;;;5013221;28;20092;-60
2022/10/19 04:04:04;;;;;;;14.45;4.38;;;14.50;99.00;;;;;;5012843;28;20107;-60
2022/10/19 04:06:36;;;;;;;12.07;4.00;;;14.50;99.10;;;;;;5013067;28;20068;-60
2022/10/19 04:09:04;;;;;;;10.00;4.10;;;14.50;99.00;;;;;;5013087;28;20026;-60
2022/10/19 04:11:30;;;;;;;13.23;4.07;;;14.50;99.00;;;;;;5013552;28;20375;-60
2022/10/19 04:13:57;;;;;;;13.80;4.07;;;14.40;99.00;;;;;;5012968;28;20022;-59
2022/10/19 04:16:24;;;;;;;11.68;4.20;;;14.40;99.10;;;;;;5012780;28;20041;-60
2022/10/19 04:18:50;;;;;;;12.70;3.75;;;14.40;98.90;;;;;;5013010;28;20049;-59
2022/10/19 04:21:24;;;;;;;8.65;3.00;;;14.50;98.90;;;;;;5012850;28;20473;-59
2022/10/19 04:23:51;;;;;;;12.00;4.07;;;14.50;99.00;;;;;;5012633;28;20521;-59
2022/10/19 04:26:18;;;;;;;9.98;3.75;;;14.50;98.90;;;;;;5012878;28;20101;-60
2022/10/19 04:28:43;;;;;;;12.55;3.60;;;14.40;98.90;;;;;;5012905;28;20021;-60
2022/10/19 04:31:11;;;;;;;9.43;3.35;;;14.40;98.80;;;;;;5028036;28;20024;-61
2022/10/19 04:33:36;;;;;;;13.57;4.00;;;14.40;99.10;;;;;;5013150;28;20058;-61
2022/10/19 04:36:07;;;;;;;13.55;3.53;;;14.30;99.00;;;;;;5012395;28;20053;-60
2022/10/19 04:38:33;;;;;;;14.38;3.95;;;14.40;98.90;;;;;;5012791;28;20034;-63
2022/10/19 04:41:03;;;;;;;8.65;3.55;;;14.40;98.90;;;;;;5012782;28;20026;-60
2022/10/19 04:43:28;;;;;;;11.48;3.75;;;14.40;98.90;;;;;;5012743;28;20030;-61
2022/10/19 04:45:54;;;;;;;11.65;3.78;;;14.40;98.80;;;;;;5012631;28;20026;-61
2022/10/19 04:48:19;;;;;;;14.43;3.70;;;14.30;98.90;;;;;;5012734;28;20065;-60
2022/10/19 04:50:45;;;;;;;10.82;3.65;;;14.30;98.90;;;;;;5012263;28;20026;-60
2022/10/19 04:53:10;;;;;;;10.70;3.70;;;14.30;99.00;;;;;;5012722;28;20053;-60
2022/10/19 04:55:41;;;;;;;9.60;4.05;;;14.30;99.00;;;;;;5012749;28;20522;-61
2022/10/19 04:58:06;;;;;;;9.90;3.63;;;14.30;99.00;;;;;;5012664;28;20033;-61
2022/10/19 05:00:32;;;;;;;13.38;3.75;;;14.30;99.00;;;;;;5019517;28;20030;-61
2022/10/19 05:02:57;;;;;;;13.80;4.03;;;14.30;99.00;;;;;;5027183;28;20052;-60
2022/10/19 05:05:24;;;;;;;8.18;3.15;;;14.20;99.10;;;;;;5038919;28;20037;-60
2022/10/19 05:07:49;;;;;;;10.80;3.85;;;14.20;99.20;;;;;;5033031;28;20486;-61
2022/10/19 05:10:15;;;;;;;9.52;3.60;;;14.20;99.20;;;;;;5035125;28;20100;-61
2022/10/19 05:12:41;;;;;;;13.18;4.10;;;14.20;99.10;;;;;;5034222;28;20033;-63
2022/10/19 05:15:07;;;;;;;9.45;3.80;;;14.20;99.20;;;;;;5049390;28;20021;-60
2022/10/19 05:17:32;;;;;;;14.63;4.30;;;14.20;99.20;;;;;;5040873;28;20029;-59
2022/10/19 05:19:58;;;;;;;11.27;3.95;;;14.20;99.10;;;;;;5034489;28;20028;-60
2022/10/19 05:22:24;;;;;;;13.00;4.03;;;14.20;99.10;;;;;;5028448;28;20037;-63
2022/10/19 05:24:49;;;;;;;10.00;4.07;;;14.20;99.20;;;;;;5031485;28;20020;-60
2022/10/19 05:27:15;;;;;;;14.38;4.50;;;14.20;99.50;;;;;;5029282;28;20017;-59
2022/10/19 05:29:40;;;;;;;14.00;4.50;;;14.20;99.30;;;;;;5038847;28;20428;-60
2022/10/19 05:32:06;;;;;;;13.15;4.07;;;14.10;98.80;;;;;;5016346;28;20034;-62
2022/10/19 05:34:32;;;;;;;12.40;4.28;;;14.10;98.60;;;;;;5027236;28;20025;-61
2022/10/19 05:36:57;;;;;;;12.55;4.43;;;14.10;98.00;;;;;;5031842;28;20059;-60
2022/10/19 05:39:23;;;;;;;13.77;4.57;;;14.10;97.70;;;;;;5033220;28;20107;-59
2022/10/19 05:41:49;;;;;;;19.02;5.75;;;14.10;97.90;;;;;;5043699;28;20065;-59
2022/10/19 05:44:20;;;;;;;16.98;5.40;;;14.20;97.70;;;;;;5033955;28;20382;-59
2022/10/19 05:46:46;;;;;;;12.98;5.38;;;14.20;98.80;;;;;;5028581;28;20026;-59
2022/10/19 05:49:13;;;;;;;15.45;5.47;;;14.20;98.90;;;;;;5034719;28;20025;-60
2022/10/19 05:51:39;;;;;;;16.88;6.50;;;14.10;99.00;;;;;;5036631;28;20017;-61
2022/10/19 05:54:05;;;;;;;14.88;5.63;;;14.10;99.10;;;;;;5049211;28;20524;-60
2022/10/19 05:56:31;;;;;;;16.08;6.60;;;14.00;99.30;;;;;;5039821;28;20116;-62
2022/10/19 05:58:59;;;;;;;13.00;5.82;;;13.90;99.60;;;;;;5032463;28;20061;-60
2022/10/19 06:01:26;;;;;;;12.10;6.03;;;13.90;99.60;;;;;;5039321;28;20023;-61
2022/10/19 06:03:54;;;;;;;12.65;6.35;;;13.90;99.70;;;;;;5036067;28;20049;-58
2022/10/19 06:06:20;;;;;;;14.50;6.50;;;13.90;99.80;;;;;;5054563;28;20021;-60
2022/10/19 06:08:47;;;;;;;18.00;6.60;;;13.80;99.80;;;;;;5048400;28;20387;-59
2022/10/19 06:11:18;;;;;;;17.83;6.93;;;13.90;99.80;;;;;;5032451;28;20136;-58
2022/10/19 06:13:45;;;;;;;16.20;6.60;;;13.80;99.90;;;;;;5028349;28;20026;-60
2022/10/19 06:16:13;;;;;;;14.18;7.22;;;13.80;99.70;;;;;;5031728;28;20025;-68
2022/10/19 06:18:41;;;;;;;17.70;7.07;;;13.80;99.80;;;;;;5030044;28;20482;-60
2022/10/19 06:21:10;;;;;;;16.42;7.07;;;13.80;99.80;;;;;;5035879;28;20018;-59
2022/10/19 06:23:36;;;;;;;13.90;7.18;;;13.90;99.80;;;;;;5033109;28;20049;-59
2022/10/19 06:26:04;;;;;;;14.85;7.40;;;13.80;99.70;;;;;;5031217;28;20021;-60
2022/10/19 06:28:30;;;;;;;15.65;7.32;;;13.70;99.90;;;;;;5032989;28;20059;-58
2022/10/19 06:30:59;;;;;;;14.73;6.80;;;13.70;99.90;;;;;;5033366;28;20053;-61
2022/10/19 06:33:25;;;;;;;19.55;7.45;;;13.80;99.90;;;;;;5033660;28;20030;-61
2022/10/19 06:35:51;;;;;;;14.93;8.15;;;13.70;99.90;;;;;;5033168;28;20474;-60
2022/10/19 06:38:17;;;;;;;13.85;7.75;;;13.70;99.90;;;;;;5033876;28;20083;-61
2022/10/19 06:40:42;;;;;;;18.20;8.60;;;13.70;99.90;;;;;;5034514;28;20030;-59
2022/10/19 06:43:08;;;;;;;17.17;8.30;;;13.60;99.90;;;;;;5032675;28;20414;-59
2022/10/19 06:45:37;;;;;;;16.45;7.97;;;13.60;99.90;;;;;;5033498;28;20052;-59
2022/10/19 06:48:03;;;;;;;15.45;8.15;;;13.60;99.90;;;;;;5033467;28;20017;-59
2022/10/19 06:50:30;;;;;;;16.23;8.80;;;13.60;99.90;;;;;;5031845;28;20026;-60
2022/10/19 06:52:57;;;;;;;19.17;7.97;;;13.70;99.90;;;;;;5029797;28;20070;-61
2022/10/19 06:55:22;;;;;;;17.95;7.85;;;13.60;99.90;;;;;;5033948;28;20029;-60
2022/10/19 06:57:48;;;;;;;18.05;7.40;;;13.70;99.90;;;;;;5032705;28;20026;-61
2022/10/19 07:00:14;;;;;;;16.13;6.90;;;13.60;99.90;;;;;;5033181;28;20061;-59
2022/10/19 07:02:39;;;;;;;14.85;6.78;;;13.60;99.90;;;;;;5033232;28;20040;-60
2022/10/19 07:05:06;;;;;;;15.10;7.38;;;13.60;99.90;;;;;;5037773;28;20490;-61
2022/10/19 07:07:31;;;;;;;14.70;7.28;;;13.60;99.90;;;;;;5036341;28;20478;-63
2022/10/19 07:09:57;;;;;;;15.38;6.80;;;13.60;99.90;;;;;;5033606;28;20025;-64
2022/10/19 07:12:22;;;;;;;14.38;6.70;;;13.60;99.90;;;;;;5031893;28;20033;-64
2022/10/19 07:14:48;;;;;;;16.27;6.95;;;13.60;99.90;;;;;;5030428;28;20026;-61
2022/10/19 07:17:13;;;;;;;14.80;6.50;;;13.60;99.90;;;;;;5033111;28;20025;-63
2022/10/19 07:19:39;;;;;;;14.00;6.10;;;13.60;99.90;;;;;;5033038;28;20382;-63
2022/10/19 07:22:05;;;;;;;17.67;6.22;;;13.60;99.90;;;;;;5034982;28;20090;-61
2022/10/19 07:24:30;;;;;;;14.65;6.20;;;13.60;99.90;;;;;;5031367;28;20037;-65
2022/10/19 07:26:56;;;;;;;13.82;6.40;;;13.50;99.90;;;;;;5033061;28;20033;-64
2022/10/19 07:29:21;;;;;;;16.40;6.00;;;13.50;99.90;;;;;;5035229;28;20104;-62
2022/10/19 07:31:47;;;;;;;15.43;5.97;;;13.50;99.90;;;;;;5036909;28;20108;-64
2022/10/19 07:34:13;;;;;;;10.32;5.78;;;13.50;99.90;;;;;;5036488;28;20045;-63
2022/10/19 07:36:43;;;;;;;15.77;5.95;;;13.40;99.90;;;;;;5033196;28;20020;-63
2022/10/19 07:39:10;;;;;;;12.57;5.95;;;13.40;99.90;;;;;;5033100;28;20057;-60
2022/10/19 07:41:35;;;;;;;12.30;5.93;;;13.50;99.90;;;;;;5030270;28;20060;-61
2022/10/19 07:44:02;;;;;;;14.77;6.07;;;13.50;99.90;;;;;;5035670;28;20029;-63
2022/10/19 07:46:32;;;;;;;11.63;5.63;;;13.60;99.90;;;;;;5028206;28;20203;-64
2022/10/19 07:48:57;;;;;;;13.70;6.20;;;13.60;99.90;;;;;;5030850;28;20029;-63
2022/10/19 07:51:24;;;;;;;15.63;6.07;;;13.60;99.90;;;;;;5029501;28;20128;-64
2022/10/19 07:53:49;;;;;;;13.80;5.95;;;13.60;99.90;;;;;;5052051;28;20029;-60
2022/10/19 07:56:23;;;;;;;11.50;5.88;;;13.60;99.90;;;;;;5038480;28;20021;-63
2022/10/19 07:58:50;;;;;;;15.07;5.90;;;13.70;99.90;;;;;;5032562;28;20026;-64
2022/10/19 08:01:21;;;;;;;14.18;5.03;;;13.70;99.90;;;;;;5030519;28;20029;-63
2022/10/19 08:03:50;;;;;;;13.90;6.55;;;13.70;99.90;;;;;;5030001;28;20080;-63
2022/10/19 08:06:18;;;;;;;14.32;6.22;;;13.70;99.90;;;;;;5032771;28;20137;-64
2022/10/19 08:08:45;;;;;;;14.05;5.32;;;13.80;99.90;;;;;;5032932;28;20032;-60
2022/10/19 08:11:16;;;;;;;12.10;5.35;;;13.70;99.90;;;;;;5032966;28;20154;-64
2022/10/19 08:13:42;;;;;;;12.65;5.32;;;13.70;99.90;;;;;;5031167;28;20057;-65
2022/10/19 08:16:23;;;;;;;11.45;5.90;;;13.70;99.90;;;;;;5032271;28;20057;-65
2022/10/19 08:18:49;;;;;;;13.63;5.78;;;13.80;99.90;;;;;;5030517;28;20036;-64
2022/10/19 08:21:15;;;;;;;12.10;5.97;;;13.80;99.90;;;;;;5031018;28;20490;-59
2022/10/19 08:23:40;;;;;;;10.25;5.40;;;13.80;99.90;;;;;;5032004;28;20045;-58
2022/10/19 08:26:06;;;;;;;12.10;5.35;;;13.80;99.90;;;;;;5043077;28;20049;-61
2022/10/19 08:28:31;;;;;;;11.15;5.00;;;13.80;99.90;;;;;;5032161;28;20025;-66
2022/10/19 08:30:58;;;;;;;16.77;5.55;;;13.90;99.90;;;;;;5028331;28;20032;-61
2022/10/19 08:33:25;;;;;;;17.77;5.85;;;13.80;99.90;;;;;;5030197;28;20064;-64
2022/10/19 08:35:52;;;;;;;10.90;4.82;;;13.90;99.90;;;;;;5031801;28;20025;-63
2022/10/19 08:38:18;;;;;;;9.70;4.65;;;13.80;99.90;;;;;;5032554;28;20083;-69
2022/10/19 08:40:45;;;;;;;12.13;4.93;;;13.90;99.90;;;;;;5030669;28;20042;-67
2022/10/19 08:43:26;;;;;;;19.48;5.72;;;13.80;99.90;;;;;;5036084;28;20038;-67
2022/10/19 08:46:17;;;;;;;13.10;5.25;;;13.90;99.90;;;;;;5035670;28;20040;-68
2022/10/19 08:48:43;;;;;;;11.27;4.55;;;13.90;99.90;;;;;;5043039;28;20036;-67
2022/10/19 08:51:12;;;;;;;13.82;5.20;;;13.90;99.90;;;;;;5050413;28;20017;-64
2022/10/19 08:53:53;;;;;;;13.10;5.30;;;14.00;99.90;;;;;;5028602;28;20025;-67
2022/10/19 08:56:21;;;;;;;10.63;4.93;;;14.00;99.90;;;;;;5034978;28;20013;-65
2022/10/19 08:59:08;;;;;;;15.65;5.57;;;13.90;99.90;;;;;;5035163;28;20070;-60
2022/10/19 09:01:45;;;;;;;14.30;6.07;;;14.00;99.90;;;;;;5033111;28;20022;-62
2022/10/19 09:04:22;;;;;;;12.32;5.05;;;14.00;99.90;;;;;;5051011;28;20048;-63
2022/10/19 09:07:02;;;;;;;9.68;5.05;;;14.10;99.90;;;;;;5039063;28;20035;-66
2022/10/19 09:09:29;;;;;;;14.00;4.90;;;14.10;99.80;;;;;;5029748;28;20028;-66
2022/10/19 09:12:00;;;;;;;10.50;4.55;;;14.00;99.90;;;;;;5043544;28;20032;-63
2022/10/19 09:14:31;;;;;;;16.38;5.63;;;14.10;99.80;;;;;;5035433;28;20033;-61
2022/10/19 09:17:02;;;;;;;11.77;4.97;;;14.10;99.60;;;;;;5035757;28;20104;-62
2022/10/19 09:19:30;;;;;;;14.70;5.43;;;14.10;99.50;;;;;;5033700;28;20076;-62
2022/10/19 09:22:00;;;;;;;15.30;5.28;;;14.10;99.40;;;;;;5028072;28;20025;-62
2022/10/19 09:24:50;;;;;;;16.00;5.53;;;14.10;99.50;;;;;;5030342;28;20490;-61
2022/10/19 09:27:22;;;;;;;14.50;4.68;;;14.10;99.40;;;;;;5018260;28;20131;-63
2022/10/19 09:30:02;;;;;;;13.23;4.97;;;14.20;99.40;;;;;;5033296;28;20022;-62
2022/10/19 09:32:37;;;;;;;12.30;5.03;;;14.20;99.60;;;;;;5035575;28;20474;-60
2022/10/19 09:35:34;;;;;;;10.38;4.72;;;14.20;99.40;;;;;;5034356;28;20064;-61
2022/10/19 09:38:01;;;;;;;9.95;4.72;;;14.20;99.50;;;;;;5032769;28;20119;-60
2022/10/19 09:40:29;;;;;;;13.68;5.55;;;14.20;99.40;;;;;;5037906;28;20031;-62
2022/10/19 09:43:01;;;;;;;14.00;5.13;;;14.20;99.40;;;;;;5054458;28;20037;-61
2022/10/19 09:45:43;;;;;;;10.50;4.53;;;14.20;99.50;;;;;;5054096;28;20021;-59
2022/10/19 09:48:32;;;;;;;17.45;5.78;;;14.20;99.40;;;;;;5050822;28;20099;-64
2022/10/19 09:51:00;;;;;;;13.48;5.40;;;14.30;99.30;;;;;;5032961;28;20487;-64
2022/10/19 09:53:27;;;;;;;13.25;5.30;;;14.30;99.40;;;;;;5032671;28;20067;-64
2022/10/19 09:56:05;;;;;;;13.52;5.15;;;14.30;99.50;;;;;;5034237;28;20021;-64
2022/10/19 09:58:31;;;;;;;15.68;5.45;;;14.30;99.30;;;;;;5034055;28;20169;-66
2022/10/19 10:00:57;;;;;;;13.98;5.93;;;14.30;99.40;;;;;;5033347;28;20483;-64
2022/10/19 10:03:42;;;;;;;13.45;5.07;;;14.30;99.40;;;;;;5028995;28;20033;-63
2022/10/19 10:06:12;;;;;;;13.43;5.65;;;14.30;99.60;;;;;;5020247;28;20029;-64
2022/10/19 10:08:44;;;;;;;13.82;5.88;;;14.40;99.50;;;;;;5012826;28;20022;-63
2022/10/19 10:11:14;;;;;;;13.30;5.78;;;14.40;99.50;;;;;;5011705;28;20025;-65
2022/10/19 10:13:43;;;;;;;10.30;6.03;;;14.40;99.30;;;;;;5026072;28;20091;-63
2022/10/19 10:16:13;;;;;;;12.25;6.43;;;14.40;99.40;;;;;;5037029;28;20079;-64
2022/10/19 10:18:50;;;;;;;11.27;5.47;;;14.40;99.30;;;;;;5034404;28;21174;-61
2022/10/19 10:21:49;;;;;;;14.07;5.35;;;14.40;99.30;;;;;;5031528;28;20056;-60
2022/10/19 10:24:18;;;;;;;14.80;5.40;;;14.50;99.10;;;;;;5027512;28;20464;-60
2022/10/19 10:26:53;;;;;;;13.32;5.70;;;14.50;99.40;;;;;;5036588;28;20017;-63
2022/10/19 10:29:21;;;;;;;9.20;5.28;;;14.50;99.50;;;;;;5036001;28;20462;-63
2022/10/19 10:31:50;;;;;;;11.38;5.60;;;14.50;99.40;;;;;;5025620;28;20061;-60
2022/10/19 10:34:28;;;;;;;15.50;6.13;;;14.50;99.40;;;;;;5031668;28;20395;-65
2022/10/19 10:36:53;;;;;;;15.48;6.40;;;14.60;99.40;;;;;;5029329;28;20029;-60
2022/10/19 10:39:19;;;;;;;13.20;6.20;;;14.50;99.40;;;;;;5045516;28;20033;-60
2022/10/19 10:41:47;;;;;;;15.23;6.40;;;14.60;99.30;;;;;;5035173;28;20020;-59
2022/10/19 10:44:23;;;;;;;14.80;6.13;;;14.60;99.40;;;;;;5033676;28;20045;-59
2022/10/19 10:46:57;;;;;;;13.85;6.35;;;14.70;99.40;;;;;;5030260;28;20087;-63
2022/10/19 10:49:26;;;;;;;12.93;5.97;;;14.70;99.30;;;;;;5032933;28;20029;-67
2022/10/19 10:51:56;;;;;;;14.63;6.80;;;14.70;99.00;;;;;;5029444;28;20024;-62
2022/10/19 10:54:27;;;;;;;14.35;6.50;;;14.70;99.40;;;;;;5033460;28;20032;-60
2022/10/19 10:57:15;;;;;;;13.05;5.78;;;14.70;99.10;;;;;;5032564;28;20108;-64
2022/10/19 10:59:43;;;;;;;14.55;5.53;;;14.70;99.10;;;;;;5029000;28;20152;-62
2022/10/19 11:02:13;;;;;;;11.25;5.53;;;14.80;99.10;;;;;;5028606;28;20026;-64
2022/10/19 11:04:45;;;;;;;14.45;5.22;;;14.80;99.10;;;;;;5033639;28;20060;-64
2022/10/19 11:07:22;;;;;;;10.93;5.78;;;14.80;99.00;;;;;;5042352;28;20033;-63
2022/10/19 11:09:58;;;;;;;13.13;5.75;;;14.80;99.10;;;;;;5020470;28;20037;-65
2022/10/19 11:12:37;;;;;;;15.57;6.07;;;14.80;99.30;;;;;;5039472;28;20374;-64
2022/10/19 11:15:27;;;;;;;12.18;6.15;;;14.80;99.20;;;;;;5034216;28;20520;-65
2022/10/19 11:18:29;;;;;;;14.75;6.10;;;14.80;99.10;;;;;;5027109;28;20033;-62
2022/10/19 11:21:09;;;;;;;14.15;6.57;;;14.90;99.30;;;;;;5025485;28;20037;-60
2022/10/19 11:23:47;;;;;;;14.48;6.18;;;14.90;99.20;;;;;;5020540;28;20041;-62
2022/10/19 11:26:52;;;;;;;13.90;6.57;;;14.90;99.00;;;;;;5027505;28;20032;-61
2022/10/19 11:29:33;;;;;;;14.23;6.15;;;14.90;99.10;;;;;;5020083;28;20038;-62
2022/10/19 11:31:59;;;;;;;12.48;5.82;;;15.00;99.20;;;;;;5028150;28;20463;-62
2022/10/19 11:34:43;;;;;;;14.75;6.57;;;15.00;99.00;;;;;;5019504;28;20364;-65
2022/10/19 11:37:28;;;;;;;13.95;6.03;;;15.00;99.00;;;;;;5020153;28;20820;-63
2022/10/19 11:40:15;;;;;;;12.90;6.50;;;14.90;99.20;;;;;;5024081;28;20029;-60
2022/10/19 11:43:05;;;;;;;15.32;6.72;;;15.00;99.30;;;;;;5026858;28;20037;-65
2022/10/19 11:46:07;;;;;;;19.38;6.97;;;15.00;99.00;;;;;;5033949;28;20034;-64
2022/10/19 11:48:55;;;;;;;18.73;6.80;;;15.10;99.00;;;;;;5038431;28;20458;-60
2022/10/19 11:51:33;;;;;;;16.25;7.00;;;15.10;99.10;;;;;;5016398;28;20091;-63
2022/10/19 11:54:20;;;;;;;15.00;6.38;;;15.10;98.70;;;;;;5037280;28;20018;-60
2022/10/19 11:57:08;;;;;;;14.52;5.53;;;15.10;98.80;;;;;;5027714;28;20041;-66
2022/10/19 11:59:43;;;;;;;15.10;6.20;;;15.20;98.80;;;;;;5038293;28;20028;-62
2022/10/19 12:02:38;;;;;;;11.30;5.85;;;15.20;99.00;;;;;;5029139;28;20041;-67
2022/10/19 12:05:20;;;;;;;10.57;5.38;;;15.20;99.00;;;;;;5028226;28;20033;-63
2022/10/19 12:08:14;;;;;;;14.38;6.72;;;15.20;98.90;;;;;;5020052;28;20029;-62
2022/10/19 12:10:53;;;;;;;14.20;6.85;;;15.20;98.70;;;;;;5029506;28;20532;-61
2022/10/19 12:13:26;;;;;;;10.60;6.25;;;15.30;98.60;;;;;;5026399;28;20060;-63
2022/10/19 12:15:54;;;;;;;13.25;7.00;;;15.30;98.40;;;;;;5030195;28;20034;-66
2022/10/19 12:18:49;;;;;;;14.40;6.10;;;15.40;98.20;;;;;;5030117;28;20036;-65
2022/10/19 12:21:32;;;;;;;14.02;6.30;;;15.30;98.60;;;;;;5031669;28;20096;-61
2022/10/19 12:24:00;;;;;;;9.40;5.53;;;15.30;98.40;;;;;;5031952;28;20061;-60
2022/10/19 12:26:29;;;;;;;13.38;5.93;;;15.30;98.60;;;;;;5029654;28;20156;-67
2022/10/19 12:28:57;;;;;;;13.18;6.07;;;15.30;98.50;;;;;;5030027;28;20108;-66
2022/10/19 12:31:24;;;;;;;16.00;6.00;;;15.40;98.30;;;;;;5029588;28;20033;-63
2022/10/19 12:34:12;;;;;;;13.77;5.57;;;15.40;98.30;;;;;;5029418;28;20061;-66
2022/10/19 12:36:48;;;;;;;11.52;6.05;;;15.40;98.30;;;;;;5028625;28;20522;-64
2022/10/19 12:39:19;;;;;;;10.30;5.43;;;15.40;98.20;;;;;;5029398;28;20076;-66
2022/10/19 12:41:55;;;;;;;16.13;6.03;;;15.50;98.00;;;;;;5027990;28;20020;-61
2022/10/19 12:44:55;;;;;;;14.63;6.13;;;15.50;98.00;;;;;;5018807;28;20577;-64
2022/10/19 12:47:23;;;;;;;10.77;5.35;;;15.50;98.10;;;;;;5023490;28;20064;-66
2022/10/19 12:49:56;;;;;;;12.88;5.10;;;15.50;98.00;;;;;;5028611;28;20022;-64
2022/10/19 12:52:34;;;;;;;12.55;4.70;;;15.60;98.80;;;;;;5024217;28;20030;-61
2022/10/19 12:55:36;;;;;;;10.65;4.97;;;15.70;98.30;;;;;;5026484;28;20065;-65